Terminal Aerodrome Forecast
Issued by NWS Duluth, MN

Home | Current Version | Previous Version | Text Only | Print | Product List | Glossary On
Versions: 1 2 3 4 5 6 7 8 9 10 11 12 13 14 15
000
FTUS43 KDLH 151210 AAC
TAFINL
TAF AMD
KINL 151210Z 1512/1612 30005KT P6SM BKN015
     FM151400 28003KT P6SM SKC
     FM151800 24007KT P6SM BKN200
     FM152300 23004KT P6SM VCSH BKN060
     FM160100 26003KT P6SM BKN080=

USA.gov is the U.S. government's official web portal to all federal, state and local government web resources and services.